Time,TemperatureF,DewpointF,PressureIn,WindDirection,WindDirectionDegrees,WindSpeedMPH,WindSpeedGustMPH,Humidity,HourlyPrecipIn,Conditions,Clouds,dailyrainin,SolarRadiationWatts/m^2,SoftwareType,DateUTC
2015-08-05 00:04:00,66.6,63.0,30.96,ESE,107,0.0,0.0,88,0.00,,,0.00,0.00,Weather logger V1.0,2015-08-05 07:04:00,
2015-08-05 00:09:00,66.6,59.9,30.96,SSE,149,0.0,0.0,79,0.00,,,0.00,0.00,Weather logger V1.0,2015-08-05 07:09:00,
2015-08-05 00:14:00,66.7,61.2,30.96,ESE,115,0.0,0.0,82,0.00,,,0.00,0.00,Weather logger V1.0,2015-08-05 07:14:00,
2015-08-05 00:19:00,66.9,58.8,30.96,SE,134,0.9,2.5,75,0.00,,,0.00,0.00,Weather logger V1.0,2015-08-05 07:19:00,
2015-08-05 00:24:00,67.3,60.6,30.96,SE,127,0.9,2.5,79,0.00,,,0.00,0.00,Weather logger V1.0,2015-08-05 07:24:00,
2015-08-05 00:29:00,67.5,61.2,30.96,SE,124,0.2,2.5,80,0.00,,,0.00,0.00,Weather logger V1.0,2015-08-05 07:29:00,
2015-08-05 00:34:00,67.6,61.3,30.96,SE,126,2.5,2.5,80,0.00,,,0.00,0.00,Weather logger V1.0,2015-08-05 07:34:00,
2015-08-05 00:39:00,67.5,61.2,30.96,East,97,0.2,2.5,80,0.00,,,0.00,0.00,Weather logger V1.0,2015-08-05 07:39:00,
2015-08-05 00:44:00,67.3,60.3,30.96,SE,137,1.8,2.5,78,0.00,,,0.00,0.00,Weather logger V1.0,2015-08-05 07:44:00,
2015-08-05 00:50:00,67.1,60.1,30.97,SSE,155,1.8,2.5,78,0.00,,,0.00,0.00,Weather logger V1.0,2015-08-05 07:50:00,
2015-08-05 00:55:00,66.9,60.6,30.96,SE,129,3.6,4.9,80,0.00,,,0.00,0.00,Weather logger V1.0,2015-08-05 07:55:00,
2015-08-05 01:00:00,66.7,59.7,30.96,ESE,114,4.5,4.9,78,0.00,,,0.00,0.00,Weather logger V1.0,2015-08-05 08:00:00,
2015-08-05 01:05:00,66.6,58.8,30.96,SE,131,3.6,4.9,76,0.00,,,0.00,0.00,Weather logger V1.0,2015-08-05 08:05:00,
2015-08-05 01:10:00,66.6,58.5,30.96,ESE,105,3.6,4.9,75,0.00,,,0.00,0.00,Weather logger V1.0,2015-08-05 08:10:00,
2015-08-05 01:15:00,66.6,58.5,30.97,SE,133,3.6,4.9,75,0.00,,,0.00,0.00,Weather logger V1.0,2015-08-05 08:15:00,
2015-08-05 01:20:00,66.4,58.3,30.97,ESE,111,2.5,2.5,75,0.00,,,0.00,0.00,Weather logger V1.0,2015-08-05 08:20:00,
2015-08-05 01:25:00,66.4,58.3,30.97,ESE,109,1.8,2.5,75,0.00,,,0.00,0.00,Weather logger V1.0,2015-08-05 08:25:00,
2015-08-05 01:30:00,66.4,57.9,30.96,ESE,109,2.9,4.9,74,0.00,,,0.00,0.00,Weather logger V1.0,2015-08-05 08:30:00,
2015-08-05 01:35:00,66.2,58.5,30.97,SE,134,0.2,2.5,76,0.00,,,0.00,0.00,Weather logger V1.0,2015-08-05 08:35:00,
2015-08-05 01:40:00,66.2,58.5,30.96,East,94,1.1,2.5,76,0.00,,,0.00,0.00,Weather logger V1.0,2015-08-05 08:40:00,
2015-08-05 01:45:00,66.0,58.6,30.96,ESE,105,2.0,4.9,77,0.00,,,0.00,0.00,Weather logger V1.0,2015-08-05 08:45:00,
2015-08-05 01:50:00,65.8,58.5,30.96,NE,55,2.7,4.9,77,0.00,,,0.00,0.00,Weather logger V1.0,2015-08-05 08:50:00,
2015-08-05 01:55:00,65.7,58.3,30.96,SE,128,0.9,2.5,77,0.00,,,0.00,0.00,Weather logger V1.0,2015-08-05 08:55:00,
2015-08-05 02:00:00,65.5,58.5,30.96,ESE,119,1.1,2.5,78,0.00,,,0.00,0.00,Weather logger V1.0,2015-08-05 09:00:00,
2015-08-05 02:06:00,65.3,58.3,30.97,ESE,117,0.0,0.0,78,0.00,,,0.00,0.00,Weather logger V1.0,2015-08-05 09:06:00,
2015-08-05 02:11:00,65.1,58.1,30.97,NNE,33,0.2,2.5,78,0.00,,,0.00,0.00,Weather logger V1.0,2015-08-05 09:11:00,
2015-08-05 02:16:00,64.9,58.3,30.97,ESE,111,0.0,0.0,79,0.00,,,0.00,0.00,Weather logger V1.0,2015-08-05 09:16:00,